sensor_id;sensor_type;location;lat;lon;timestamp;P1;durP1;ratioP1;P2;durP2;ratioP2
71696;SDS011;68167;59.120;37.898;2023-05-07T00:02:24;111.27;;;30.17;;
71696;SDS011;68167;59.120;37.898;2023-05-07T00:04:51;117.90;;;30.40;;
71696;SDS011;68167;59.120;37.898;2023-05-07T00:07:18;144.23;;;38.03;;
71696;SDS011;68167;59.120;37.898;2023-05-07T00:09:44;113.27;;;33.20;;
71696;SDS011;68167;59.120;37.898;2023-05-07T00:12:10;135.37;;;35.57;;
71696;SDS011;68167;59.120;37.898;2023-05-07T00:14:37;105.50;;;25.57;;
71696;SDS011;68167;59.120;37.898;2023-05-07T00:17:03;107.33;;;27.00;;
71696;SDS011;68167;59.120;37.898;2023-05-07T00:19:29;91.43;;;24.47;;
71696;SDS011;68167;59.120;37.898;2023-05-07T00:21:56;67.63;;;20.63;;
71696;SDS011;68167;59.120;37.898;2023-05-07T00:24:22;80.90;;;22.73;;
71696;SDS011;68167;59.120;37.898;2023-05-07T00:26:49;71.40;;;18.63;;
71696;SDS011;68167;59.120;37.898;2023-05-07T00:29:15;80.90;;;21.17;;
71696;SDS011;68167;59.120;37.898;2023-05-07T00:31:42;65.63;;;18.77;;
71696;SDS011;68167;59.120;37.898;2023-05-07T00:34:11;48.73;;;15.80;;
71696;SDS011;68167;59.120;37.898;2023-05-07T00:36:38;48.53;;;15.13;;
71696;SDS011;68167;59.120;37.898;2023-05-07T00:39:04;48.80;;;14.37;;
71696;SDS011;68167;59.120;37.898;2023-05-07T00:41:31;46.43;;;14.70;;
71696;SDS011;68167;59.120;37.898;2023-05-07T00:43:57;58.17;;;17.77;;
71696;SDS011;68167;59.120;37.898;2023-05-07T00:46:24;43.10;;;13.23;;
71696;SDS011;68167;59.120;37.898;2023-05-07T00:48:51;64.43;;;19.50;;
71696;SDS011;68167;59.120;37.898;2023-05-07T00:51:19;44.97;;;15.93;;
71696;SDS011;68167;59.120;37.898;2023-05-07T00:53:46;58.83;;;17.67;;
71696;SDS011;68167;59.120;37.898;2023-05-07T00:56:12;85.57;;;24.13;;
71696;SDS011;68167;59.120;37.898;2023-05-07T00:58:40;77.03;;;23.13;;
71696;SDS011;68167;59.120;37.898;2023-05-07T01:01:06;84.00;;;25.77;;
71696;SDS011;68167;59.120;37.898;2023-05-07T01:03:33;84.80;;;25.40;;
71696;SDS011;68167;59.120;37.898;2023-05-07T01:06:00;93.43;;;26.60;;
71696;SDS011;68167;59.120;37.898;2023-05-07T01:08:27;66.93;;;20.90;;
71696;SDS011;68167;59.120;37.898;2023-05-07T01:10:56;60.40;;;21.33;;
71696;SDS011;68167;59.120;37.898;2023-05-07T01:13:23;72.40;;;21.37;;
71696;SDS011;68167;59.120;37.898;2023-05-07T01:15:50;71.60;;;20.90;;
71696;SDS011;68167;59.120;37.898;2023-05-07T01:18:17;86.73;;;24.13;;
71696;SDS011;68167;59.120;37.898;2023-05-07T01:20:43;80.33;;;23.90;;
71696;SDS011;68167;59.120;37.898;2023-05-07T01:23:11;71.63;;;22.97;;
71696;SDS011;68167;59.120;37.898;2023-05-07T01:25:38;82.17;;;23.13;;
71696;SDS011;68167;59.120;37.898;2023-05-07T01:28:05;54.70;;;17.03;;
71696;SDS011;68167;59.120;37.898;2023-05-07T01:30:34;39.33;;;11.30;;
71696;SDS011;68167;59.120;37.898;2023-05-07T01:33:06;21.03;;;7.27;;
71696;SDS011;68167;59.120;37.898;2023-05-07T01:35:37;17.57;;;5.80;;
71696;SDS011;68167;59.120;37.898;2023-05-07T01:38:06;25.60;;;6.33;;
71696;SDS011;68167;59.120;37.898;2023-05-07T01:40:34;17.63;;;6.70;;
71696;SDS011;68167;59.120;37.898;2023-05-07T01:43:01;29.73;;;9.73;;
71696;SDS011;68167;59.120;37.898;2023-05-07T01:45:30;61.17;;;21.90;;
71696;SDS011;68167;59.120;37.898;2023-05-07T01:47:58;65.73;;;22.33;;
71696;SDS011;68167;59.120;37.898;2023-05-07T01:50:25;82.93;;;25.37;;
71696;SDS011;68167;59.120;37.898;2023-05-07T01:52:52;99.20;;;26.57;;
71696;SDS011;68167;59.120;37.898;2023-05-07T01:55:18;75.23;;;23.83;;
71696;SDS011;68167;59.120;37.898;2023-05-07T01:57:47;66.70;;;22.03;;
71696;SDS011;68167;59.120;37.898;2023-05-07T02:00:14;83.77;;;26.07;;
71696;SDS011;68167;59.120;37.898;2023-05-07T02:02:45;79.77;;;26.50;;
71696;SDS011;68167;59.120;37.898;2023-05-07T02:05:23;77.87;;;21.83;;
71696;SDS011;68167;59.120;37.898;2023-05-07T02:07:57;43.43;;;11.63;;
71696;SDS011;68167;59.120;37.898;2023-05-07T02:10:26;21.03;;;8.73;;
71696;SDS011;68167;59.120;37.898;2023-05-07T02:12:52;31.47;;;8.83;;
71696;SDS011;68167;59.120;37.898;2023-05-07T02:15:19;23.77;;;8.00;;
71696;SDS011;68167;59.120;37.898;2023-05-07T02:18:02;26.73;;;10.77;;
71696;SDS011;68167;59.120;37.898;2023-05-07T02:20:34;33.53;;;11.33;;
71696;SDS011;68167;59.120;37.898;2023-05-07T02:23:01;38.30;;;10.93;;
71696;SDS011;68167;59.120;37.898;2023-05-07T02:25:29;21.40;;;9.10;;
71696;SDS011;68167;59.120;37.898;2023-05-07T02:27:56;13.17;;;5.63;;
71696;SDS011;68167;59.120;37.898;2023-05-07T02:30:32;28.60;;;12.37;;
71696;SDS011;68167;59.120;37.898;2023-05-07T02:32:59;45.47;;;16.03;;
71696;SDS011;68167;59.120;37.898;2023-05-07T02:35:25;50.20;;;21.03;;
71696;SDS011;68167;59.120;37.898;2023-05-07T02:37:52;59.17;;;26.73;;
71696;SDS011;68167;59.120;37.898;2023-05-07T02:40:19;30.37;;;13.40;;
71696;SDS011;68167;59.120;37.898;2023-05-07T02:42:46;13.20;;;6.73;;
71696;SDS011;68167;59.120;37.898;2023-05-07T02:45:13;7.53;;;4.10;;
71696;SDS011;68167;59.120;37.898;2023-05-07T02:47:41;5.57;;;3.53;;
71696;SDS011;68167;59.120;37.898;2023-05-07T02:50:08;16.10;;;6.67;;
71696;SDS011;68167;59.120;37.898;2023-05-07T02:52:34;8.23;;;3.20;;
71696;SDS011;68167;59.120;37.898;2023-05-07T02:55:00;33.53;;;8.77;;
71696;SDS011;68167;59.120;37.898;2023-05-07T02:57:30;35.33;;;10.90;;
71696;SDS011;68167;59.120;37.898;2023-05-07T02:59:57;31.13;;;10.60;;
71696;SDS011;68167;59.120;37.898;2023-05-07T03:02:25;78.93;;;22.43;;
71696;SDS011;68167;59.120;37.898;2023-05-07T03:04:52;73.27;;;25.73;;
71696;SDS011;68167;59.120;37.898;2023-05-07T03:07:18;108.33;;;33.80;;
71696;SDS011;68167;59.120;37.898;2023-05-07T03:09:44;132.03;;;39.93;;
71696;SDS011;68167;59.120;37.898;2023-05-07T03:12:11;119.20;;;35.60;;
71696;SDS011;68167;59.120;37.898;2023-05-07T03:14:37;85.33;;;26.23;;
71696;SDS011;68167;59.120;37.898;2023-05-07T03:17:04;20.97;;;9.60;;
71696;SDS011;68167;59.120;37.898;2023-05-07T03:19:30;17.83;;;6.07;;
71696;SDS011;68167;59.120;37.898;2023-05-07T03:21:57;16.83;;;6.87;;
71696;SDS011;68167;59.120;37.898;2023-05-07T03:24:24;17.43;;;7.00;;
71696;SDS011;68167;59.120;37.898;2023-05-07T03:26:50;16.60;;;6.77;;
71696;SDS011;68167;59.120;37.898;2023-05-07T03:29:17;27.80;;;5.60;;
71696;SDS011;68167;59.120;37.898;2023-05-07T03:31:43;22.23;;;6.40;;
71696;SDS011;68167;59.120;37.898;2023-05-07T03:34:09;25.70;;;5.70;;
71696;SDS011;68167;59.120;37.898;2023-05-07T03:36:36;19.03;;;5.23;;
71696;SDS011;68167;59.120;37.898;2023-05-07T03:39:04;15.17;;;4.60;;
71696;SDS011;68167;59.120;37.898;2023-05-07T03:41:37;25.07;;;6.33;;
71696;SDS011;68167;59.120;37.898;2023-05-07T03:44:04;21.43;;;5.10;;
71696;SDS011;68167;59.120;37.898;2023-05-07T03:46:30;18.67;;;5.10;;
71696;SDS011;68167;59.120;37.898;2023-05-07T03:48:59;34.37;;;5.53;;
71696;SDS011;68167;59.120;37.898;2023-05-07T03:51:26;21.10;;;5.37;;
71696;SDS011;68167;59.120;37.898;2023-05-07T03:53:53;22.03;;;5.30;;
71696;SDS011;68167;59.120;37.898;2023-05-07T03:56:20;13.50;;;4.63;;
71696;SDS011;68167;59.120;37.898;2023-05-07T03:58:50;14.53;;;4.50;;
71696;SDS011;68167;59.120;37.898;2023-05-07T04:01:17;16.13;;;5.20;;
71696;SDS011;68167;59.120;37.898;2023-05-07T04:03:43;19.30;;;4.70;;
71696;SDS011;68167;59.120;37.898;2023-05-07T04:06:10;19.60;;;5.97;;
71696;SDS011;68167;59.120;37.898;2023-05-07T04:08:36;15.23;;;5.20;;
71696;SDS011;68167;59.120;37.898;2023-05-07T04:11:04;17.93;;;4.60;;
71696;SDS011;68167;59.120;37.898;2023-05-07T04:13:32;20.27;;;4.87;;
71696;SDS011;68167;59.120;37.898;2023-05-07T04:16:01;15.90;;;4.70;;
71696;SDS011;68167;59.120;37.898;2023-05-07T04:18:29;17.63;;;4.80;;
71696;SDS011;68167;59.120;37.898;2023-05-07T04:20:55;22.90;;;4.10;;
71696;SDS011;68167;59.120;37.898;2023-05-07T04:23:22;23.37;;;4.87;;
71696;SDS011;68167;59.120;37.898;2023-05-07T04:25:49;28.13;;;5.77;;
71696;SDS011;68167;59.120;37.898;2023-05-07T04:28:32;19.67;;;5.13;;
71696;SDS011;68167;59.120;37.898;2023-05-07T04:30:58;48.13;;;13.90;;
71696;SDS011;68167;59.120;37.898;2023-05-07T04:33:26;32.90;;;11.43;;
71696;SDS011;68167;59.120;37.898;2023-05-07T04:35:52;43.40;;;14.27;;
71696;SDS011;68167;59.120;37.898;2023-05-07T04:38:19;53.60;;;15.33;;
71696;SDS011;68167;59.120;37.898;2023-05-07T04:40:48;51.53;;;16.17;;
71696;SDS011;68167;59.120;37.898;2023-05-07T04:43:19;48.27;;;15.43;;
71696;SDS011;68167;59.120;37.898;2023-05-07T04:45:52;66.70;;;19.57;;
71696;SDS011;68167;59.120;37.898;2023-05-07T04:48:20;47.80;;;17.63;;
71696;SDS011;68167;59.120;37.898;2023-05-07T04:50:48;46.23;;;13.70;;
71696;SDS011;68167;59.120;37.898;2023-05-07T04:53:18;48.60;;;13.63;;
71696;SDS011;68167;59.120;37.898;2023-05-07T04:55:45;66.47;;;15.70;;
71696;SDS011;68167;59.120;37.898;2023-05-07T04:58:13;26.23;;;9.97;;
71696;SDS011;68167;59.120;37.898;2023-05-07T05:00:41;38.43;;;11.77;;
71696;SDS011;68167;59.120;37.898;2023-05-07T05:03:08;16.17;;;5.60;;
71696;SDS011;68167;59.120;37.898;2023-05-07T05:05:37;28.13;;;8.70;;
71696;SDS011;68167;59.120;37.898;2023-05-07T05:08:04;22.47;;;7.20;;
71696;SDS011;68167;59.120;37.898;2023-05-07T05:10:30;17.27;;;5.30;;
71696;SDS011;68167;59.120;37.898;2023-05-07T05:12:57;12.07;;;5.87;;
71696;SDS011;68167;59.120;37.898;2023-05-07T05:15:24;13.23;;;4.30;;
71696;SDS011;68167;59.120;37.898;2023-05-07T05:17:51;10.33;;;3.93;;
71696;SDS011;68167;59.120;37.898;2023-05-07T05:20:18;14.17;;;5.50;;
71696;SDS011;68167;59.120;37.898;2023-05-07T05:22:44;20.90;;;7.17;;
71696;SDS011;68167;59.120;37.898;2023-05-07T05:25:13;12.13;;;4.90;;
71696;SDS011;68167;59.120;37.898;2023-05-07T05:27:39;13.07;;;5.10;;
71696;SDS011;68167;59.120;37.898;2023-05-07T05:30:06;8.53;;;3.43;;
71696;SDS011;68167;59.120;37.898;2023-05-07T05:32:34;11.57;;;3.87;;
71696;SDS011;68167;59.120;37.898;2023-05-07T05:35:00;14.97;;;5.13;;
71696;SDS011;68167;59.120;37.898;2023-05-07T05:37:27;17.50;;;5.40;;
71696;SDS011;68167;59.120;37.898;2023-05-07T05:39:54;18.17;;;5.70;;
71696;SDS011;68167;59.120;37.898;2023-05-07T05:42:21;9.50;;;3.40;;
71696;SDS011;68167;59.120;37.898;2023-05-07T05:44:48;9.50;;;3.43;;
71696;SDS011;68167;59.120;37.898;2023-05-07T05:47:14;7.57;;;2.97;;
71696;SDS011;68167;59.120;37.898;2023-05-07T05:49:41;6.27;;;3.37;;
71696;SDS011;68167;59.120;37.898;2023-05-07T05:52:12;13.27;;;6.03;;
71696;SDS011;68167;59.120;37.898;2023-05-07T05:54:40;13.83;;;6.70;;
71696;SDS011;68167;59.120;37.898;2023-05-07T05:57:06;11.83;;;3.77;;
71696;SDS011;68167;59.120;37.898;2023-05-07T05:59:33;9.93;;;2.83;;
71696;SDS011;68167;59.120;37.898;2023-05-07T06:01:59;11.57;;;4.40;;
71696;SDS011;68167;59.120;37.898;2023-05-07T06:04:26;14.00;;;4.20;;
71696;SDS011;68167;59.120;37.898;2023-05-07T06:06:52;33.47;;;10.27;;
71696;SDS011;68167;59.120;37.898;2023-05-07T06:09:19;20.73;;;6.47;;
71696;SDS011;68167;59.120;37.898;2023-05-07T06:11:46;19.97;;;7.40;;
71696;SDS011;68167;59.120;37.898;2023-05-07T06:14:12;12.20;;;3.90;;
71696;SDS011;68167;59.120;37.898;2023-05-07T06:16:39;6.97;;;2.60;;
71696;SDS011;68167;59.120;37.898;2023-05-07T06:19:07;10.03;;;3.50;;
71696;SDS011;68167;59.120;37.898;2023-05-07T06:21:33;10.97;;;4.23;;
71696;SDS011;68167;59.120;37.898;2023-05-07T06:24:00;15.53;;;4.70;;
71696;SDS011;68167;59.120;37.898;2023-05-07T06:26:27;5.70;;;1.97;;
71696;SDS011;68167;59.120;37.898;2023-05-07T06:28:53;3.13;;;1.67;;
71696;SDS011;68167;59.120;37.898;2023-05-07T06:31:20;12.97;;;3.50;;
71696;SDS011;68167;59.120;37.898;2023-05-07T06:33:52;3.60;;;1.57;;
71696;SDS011;68167;59.120;37.898;2023-05-07T06:36:19;9.07;;;2.90;;
71696;SDS011;68167;59.120;37.898;2023-05-07T06:38:46;3.73;;;2.00;;
71696;SDS011;68167;59.120;37.898;2023-05-07T06:41:12;13.77;;;6.50;;
71696;SDS011;68167;59.120;37.898;2023-05-07T06:43:39;29.73;;;12.53;;
71696;SDS011;68167;59.120;37.898;2023-05-07T06:46:29;33.00;;;11.77;;
71696;SDS011;68167;59.120;37.898;2023-05-07T06:48:56;12.00;;;4.70;;
71696;SDS011;68167;59.120;37.898;2023-05-07T06:51:23;9.03;;;3.07;;
71696;SDS011;68167;59.120;37.898;2023-05-07T06:53:50;18.47;;;6.57;;
71696;SDS011;68167;59.120;37.898;2023-05-07T06:56:16;28.20;;;9.23;;
71696;SDS011;68167;59.120;37.898;2023-05-07T06:58:43;17.97;;;6.83;;
71696;SDS011;68167;59.120;37.898;2023-05-07T07:01:10;7.50;;;3.83;;
71696;SDS011;68167;59.120;37.898;2023-05-07T07:03:37;5.40;;;2.67;;
71696;SDS011;68167;59.120;37.898;2023-05-07T07:06:04;9.23;;;3.33;;
71696;SDS011;68167;59.120;37.898;2023-05-07T07:08:31;5.60;;;2.33;;
71696;SDS011;68167;59.120;37.898;2023-05-07T07:10:58;7.07;;;2.83;;
71696;SDS011;68167;59.120;37.898;2023-05-07T07:13:24;15.20;;;5.73;;
71696;SDS011;68167;59.120;37.898;2023-05-07T07:15:51;11.57;;;3.83;;
71696;SDS011;68167;59.120;37.898;2023-05-07T07:18:19;10.67;;;3.53;;
71696;SDS011;68167;59.120;37.898;2023-05-07T07:20:48;18.43;;;4.80;;
71696;SDS011;68167;59.120;37.898;2023-05-07T07:23:14;14.70;;;5.17;;
71696;SDS011;68167;59.120;37.898;2023-05-07T07:25:41;64.70;;;20.00;;
71696;SDS011;68167;59.120;37.898;2023-05-07T07:28:08;23.57;;;8.70;;
71696;SDS011;68167;59.120;37.898;2023-05-07T07:30:37;8.83;;;3.50;;
71696;SDS011;68167;59.120;37.898;2023-05-07T07:33:03;8.07;;;3.07;;
71696;SDS011;68167;59.120;37.898;2023-05-07T07:35:34;6.83;;;2.27;;
71696;SDS011;68167;59.120;37.898;2023-05-07T07:38:03;3.60;;;1.67;;
71696;SDS011;68167;59.120;37.898;2023-05-07T07:40:30;3.10;;;1.33;;
71696;SDS011;68167;59.120;37.898;2023-05-07T07:42:57;1.60;;;0.87;;
71696;SDS011;68167;59.120;37.898;2023-05-07T07:45:24;1.30;;;0.80;;
71696;SDS011;68167;59.120;37.898;2023-05-07T07:47:51;1.73;;;0.80;;
71696;SDS011;68167;59.120;37.898;2023-05-07T07:50:18;1.63;;;0.93;;
71696;SDS011;68167;59.120;37.898;2023-05-07T07:52:44;24.10;;;7.33;;
71696;SDS011;68167;59.120;37.898;2023-05-07T07:55:14;9.93;;;4.30;;
71696;SDS011;68167;59.120;37.898;2023-05-07T07:57:47;5.93;;;2.87;;
71696;SDS011;68167;59.120;37.898;2023-05-07T08:00:13;13.40;;;4.43;;
71696;SDS011;68167;59.120;37.898;2023-05-07T08:02:44;20.13;;;7.27;;
71696;SDS011;68167;59.120;37.898;2023-05-07T08:05:18;11.67;;;4.20;;
71696;SDS011;68167;59.120;37.898;2023-05-07T08:07:47;15.33;;;3.33;;
71696;SDS011;68167;59.120;37.898;2023-05-07T08:10:22;4.80;;;2.17;;
71696;SDS011;68167;59.120;37.898;2023-05-07T08:12:53;2.90;;;1.40;;
71696;SDS011;68167;59.120;37.898;2023-05-07T08:15:19;8.23;;;2.20;;
71696;SDS011;68167;59.120;37.898;2023-05-07T08:17:46;10.33;;;3.00;;
71696;SDS011;68167;59.120;37.898;2023-05-07T08:20:13;13.33;;;4.30;;
71696;SDS011;68167;59.120;37.898;2023-05-07T08:22:40;10.60;;;3.37;;
71696;SDS011;68167;59.120;37.898;2023-05-07T08:25:07;12.43;;;4.10;;
71696;SDS011;68167;59.120;37.898;2023-05-07T08:27:34;10.77;;;4.90;;
71696;SDS011;68167;59.120;37.898;2023-05-07T08:30:00;27.30;;;6.63;;
71696;SDS011;68167;59.120;37.898;2023-05-07T08:32:29;7.50;;;3.20;;
71696;SDS011;68167;59.120;37.898;2023-05-07T08:34:56;10.03;;;4.20;;
71696;SDS011;68167;59.120;37.898;2023-05-07T08:37:22;11.53;;;4.27;;
71696;SDS011;68167;59.120;37.898;2023-05-07T08:39:49;9.47;;;3.73;;
71696;SDS011;68167;59.120;37.898;2023-05-07T08:42:20;5.17;;;2.53;;
71696;SDS011;68167;59.120;37.898;2023-05-07T08:44:49;1.60;;;0.87;;
71696;SDS011;68167;59.120;37.898;2023-05-07T08:47:20;5.43;;;1.70;;
71696;SDS011;68167;59.120;37.898;2023-05-07T08:49:53;5.30;;;1.53;;
71696;SDS011;68167;59.120;37.898;2023-05-07T08:52:21;5.57;;;1.30;;
71696;SDS011;68167;59.120;37.898;2023-05-07T08:54:48;12.93;;;4.03;;
71696;SDS011;68167;59.120;37.898;2023-05-07T08:57:15;3.83;;;1.80;;
71696;SDS011;68167;59.120;37.898;2023-05-07T08:59:41;6.70;;;1.60;;
71696;SDS011;68167;59.120;37.898;2023-05-07T09:02:08;3.10;;;1.40;;
71696;SDS011;68167;59.120;37.898;2023-05-07T09:04:38;4.83;;;1.70;;
71696;SDS011;68167;59.120;37.898;2023-05-07T09:07:04;3.20;;;1.60;;
71696;SDS011;68167;59.120;37.898;2023-05-07T09:09:34;10.90;;;3.83;;
71696;SDS011;68167;59.120;37.898;2023-05-07T09:12:03;18.07;;;5.30;;
71696;SDS011;68167;59.120;37.898;2023-05-07T09:14:32;5.70;;;2.27;;
71696;SDS011;68167;59.120;37.898;2023-05-07T09:17:00;8.80;;;4.37;;
71696;SDS011;68167;59.120;37.898;2023-05-07T09:19:27;8.67;;;3.47;;
71696;SDS011;68167;59.120;37.898;2023-05-07T09:22:03;8.43;;;2.60;;
71696;SDS011;68167;59.120;37.898;2023-05-07T09:24:40;9.53;;;2.50;;
71696;SDS011;68167;59.120;37.898;2023-05-07T09:27:09;2.33;;;1.40;;
71696;SDS011;68167;59.120;37.898;2023-05-07T09:29:39;24.53;;;9.23;;
71696;SDS011;68167;59.120;37.898;2023-05-07T09:32:07;22.77;;;8.50;;
71696;SDS011;68167;59.120;37.898;2023-05-07T09:34:35;8.37;;;3.20;;
71696;SDS011;68167;59.120;37.898;2023-05-07T09:37:03;4.43;;;2.40;;
71696;SDS011;68167;59.120;37.898;2023-05-07T09:39:44;11.20;;;4.47;;
71696;SDS011;68167;59.120;37.898;2023-05-07T09:42:14;22.27;;;8.30;;
71696;SDS011;68167;59.120;37.898;2023-05-07T09:44:41;39.53;;;13.63;;
71696;SDS011;68167;59.120;37.898;2023-05-07T09:47:14;15.90;;;6.37;;
71696;SDS011;68167;59.120;37.898;2023-05-07T09:49:50;11.77;;;3.33;;
71696;SDS011;68167;59.120;37.898;2023-05-07T09:52:24;2.00;;;1.00;;
71696;SDS011;68167;59.120;37.898;2023-05-07T09:54:59;7.47;;;3.20;;
71696;SDS011;68167;59.120;37.898;2023-05-07T09:57:31;7.33;;;2.17;;
71696;SDS011;68167;59.120;37.898;2023-05-07T10:00:03;9.23;;;3.80;;
71696;SDS011;68167;59.120;37.898;2023-05-07T10:02:35;11.97;;;3.83;;
71696;SDS011;68167;59.120;37.898;2023-05-07T10:05:03;22.07;;;7.43;;
71696;SDS011;68167;59.120;37.898;2023-05-07T10:07:32;7.77;;;2.80;;
71696;SDS011;68167;59.120;37.898;2023-05-07T10:10:05;13.23;;;3.90;;
71696;SDS011;68167;59.120;37.898;2023-05-07T10:12:37;8.07;;;3.03;;
71696;SDS011;68167;59.120;37.898;2023-05-07T10:15:13;7.13;;;2.90;;
71696;SDS011;68167;59.120;37.898;2023-05-07T10:17:43;5.70;;;1.97;;
71696;SDS011;68167;59.120;37.898;2023-05-07T10:20:12;4.37;;;1.43;;
71696;SDS011;68167;59.120;37.898;2023-05-07T10:22:42;19.43;;;6.77;;
71696;SDS011;68167;59.120;37.898;2023-05-07T10:25:29;17.67;;;5.50;;
71696;SDS011;68167;59.120;37.898;2023-05-07T10:28:09;15.07;;;5.03;;
71696;SDS011;68167;59.120;37.898;2023-05-07T10:30:55;20.20;;;8.40;;
71696;SDS011;68167;59.120;37.898;2023-05-07T10:33:36;8.87;;;2.93;;
71696;SDS011;68167;59.120;37.898;2023-05-07T10:36:03;1.57;;;0.80;;
71696;SDS011;68167;59.120;37.898;2023-05-07T10:38:33;5.43;;;2.60;;
71696;SDS011;68167;59.120;37.898;2023-05-07T10:41:01;11.37;;;5.03;;
71696;SDS011;68167;59.120;37.898;2023-05-07T10:43:41;10.03;;;3.60;;
71696;SDS011;68167;59.120;37.898;2023-05-07T10:46:16;18.97;;;5.70;;
71696;SDS011;68167;59.120;37.898;2023-05-07T10:49:07;10.23;;;3.30;;
71696;SDS011;68167;59.120;37.898;2023-05-07T10:51:42;5.93;;;2.37;;
71696;SDS011;68167;59.120;37.898;2023-05-07T10:54:25;16.03;;;4.70;;
71696;SDS011;68167;59.120;37.898;2023-05-07T10:57:17;10.23;;;3.73;;
71696;SDS011;68167;59.120;37.898;2023-05-07T11:05:29;7.20;;;3.80;;
71696;SDS011;68167;59.120;37.898;2023-05-07T11:08:23;9.13;;;3.90;;
71696;SDS011;68167;59.120;37.898;2023-05-07T11:11:03;6.83;;;1.53;;
71696;SDS011;68167;59.120;37.898;2023-05-07T11:16:24;4.37;;;2.37;;
71696;SDS011;68167;59.120;37.898;2023-05-07T11:19:13;6.73;;;2.70;;
71696;SDS011;68167;59.120;37.898;2023-05-07T11:21:43;12.43;;;4.20;;
71696;SDS011;68167;59.120;37.898;2023-05-07T11:24:37;5.87;;;1.80;;
71696;SDS011;68167;59.120;37.898;2023-05-07T11:27:09;7.63;;;3.10;;
71696;SDS011;68167;59.120;37.898;2023-05-07T11:29:37;11.47;;;4.17;;
71696;SDS011;68167;59.120;37.898;2023-05-07T11:32:10;16.07;;;4.70;;
71696;SDS011;68167;59.120;37.898;2023-05-07T11:34:51;24.43;;;6.10;;
71696;SDS011;68167;59.120;37.898;2023-05-07T11:37:19;7.83;;;2.43;;
71696;SDS011;68167;59.120;37.898;2023-05-07T11:40:03;22.00;;;6.27;;
71696;SDS011;68167;59.120;37.898;2023-05-07T11:42:33;13.17;;;4.97;;
71696;SDS011;68167;59.120;37.898;2023-05-07T11:45:01;13.50;;;3.97;;
71696;SDS011;68167;59.120;37.898;2023-05-07T11:47:32;12.47;;;4.70;;
71696;SDS011;68167;59.120;37.898;2023-05-07T11:50:04;4.43;;;1.70;;
71696;SDS011;68167;59.120;37.898;2023-05-07T11:52:34;3.70;;;1.43;;
71696;SDS011;68167;59.120;37.898;2023-05-07T11:55:02;4.87;;;2.03;;
71696;SDS011;68167;59.120;37.898;2023-05-07T11:57:33;1.37;;;0.83;;
71696;SDS011;68167;59.120;37.898;2023-05-07T12:00:00;0.90;;;0.50;;
71696;SDS011;68167;59.120;37.898;2023-05-07T12:02:40;4.10;;;1.00;;
71696;SDS011;68167;59.120;37.898;2023-05-07T12:05:07;11.73;;;3.60;;
71696;SDS011;68167;59.120;37.898;2023-05-07T12:07:34;8.30;;;2.93;;
71696;SDS011;68167;59.120;37.898;2023-05-07T12:10:05;27.83;;;10.70;;
71696;SDS011;68167;59.120;37.898;2023-05-07T12:12:39;36.87;;;15.27;;
71696;SDS011;68167;59.120;37.898;2023-05-07T12:15:08;4.50;;;1.63;;
71696;SDS011;68167;59.120;37.898;2023-05-07T12:17:35;5.13;;;2.27;;
71696;SDS011;68167;59.120;37.898;2023-05-07T12:20:02;7.00;;;3.07;;
71696;SDS011;68167;59.120;37.898;2023-05-07T12:22:34;3.97;;;1.43;;
71696;SDS011;68167;59.120;37.898;2023-05-07T12:25:01;9.53;;;3.07;;
71696;SDS011;68167;59.120;37.898;2023-05-07T12:27:31;9.10;;;2.60;;
71696;SDS011;68167;59.120;37.898;2023-05-07T12:29:58;6.60;;;1.60;;
71696;SDS011;68167;59.120;37.898;2023-05-07T12:32:25;2.47;;;1.33;;
71696;SDS011;68167;59.120;37.898;2023-05-07T12:34:51;2.23;;;1.00;;
71696;SDS011;68167;59.120;37.898;2023-05-07T12:37:24;3.50;;;0.90;;
71696;SDS011;68167;59.120;37.898;2023-05-07T12:40:04;4.13;;;1.13;;
71696;SDS011;68167;59.120;37.898;2023-05-07T12:42:38;4.00;;;0.70;;
71696;SDS011;68167;59.120;37.898;2023-05-07T12:45:13;3.33;;;0.93;;
71696;SDS011;68167;59.120;37.898;2023-05-07T12:47:45;1.77;;;0.87;;
71696;SDS011;68167;59.120;37.898;2023-05-07T12:50:15;2.20;;;0.70;;
71696;SDS011;68167;59.120;37.898;2023-05-07T12:52:43;1.10;;;0.70;;
71696;SDS011;68167;59.120;37.898;2023-05-07T12:55:12;2.30;;;0.70;;
71696;SDS011;68167;59.120;37.898;2023-05-07T12:57:42;2.20;;;0.90;;
71696;SDS011;68167;59.120;37.898;2023-05-07T13:00:11;2.73;;;1.10;;
71696;SDS011;68167;59.120;37.898;2023-05-07T13:02:39;2.63;;;1.30;;
71696;SDS011;68167;59.120;37.898;2023-05-07T13:05:07;1.37;;;0.70;;
71696;SDS011;68167;59.120;37.898;2023-05-07T13:07:34;3.03;;;0.83;;
71696;SDS011;68167;59.120;37.898;2023-05-07T13:10:03;1.40;;;0.70;;
71696;SDS011;68167;59.120;37.898;2023-05-07T13:12:32;1.40;;;0.60;;
71696;SDS011;68167;59.120;37.898;2023-05-07T13:14:58;3.13;;;1.37;;
71696;SDS011;68167;59.120;37.898;2023-05-07T13:17:25;3.53;;;1.60;;
71696;SDS011;68167;59.120;37.898;2023-05-07T13:19:51;9.73;;;3.50;;
71696;SDS011;68167;59.120;37.898;2023-05-07T13:22:18;6.90;;;1.70;;
71696;SDS011;68167;59.120;37.898;2023-05-07T13:24:45;2.60;;;1.00;;
71696;SDS011;68167;59.120;37.898;2023-05-07T13:27:11;2.90;;;0.90;;
71696;SDS011;68167;59.120;37.898;2023-05-07T13:29:38;2.23;;;0.80;;
71696;SDS011;68167;59.120;37.898;2023-05-07T13:32:04;3.23;;;1.60;;
71696;SDS011;68167;59.120;37.898;2023-05-07T13:34:31;0.93;;;0.60;;
71696;SDS011;68167;59.120;37.898;2023-05-07T13:36:57;1.03;;;0.40;;
71696;SDS011;68167;59.120;37.898;2023-05-07T13:39:24;0.93;;;0.50;;
71696;SDS011;68167;59.120;37.898;2023-05-07T13:41:51;1.00;;;0.60;;
71696;SDS011;68167;59.120;37.898;2023-05-07T13:44:17;2.70;;;0.80;;
71696;SDS011;68167;59.120;37.898;2023-05-07T13:46:44;14.63;;;6.30;;
71696;SDS011;68167;59.120;37.898;2023-05-07T13:49:11;8.37;;;3.23;;
71696;SDS011;68167;59.120;37.898;2023-05-07T13:51:38;10.47;;;3.97;;
71696;SDS011;68167;59.120;37.898;2023-05-07T13:54:05;4.80;;;1.97;;
71696;SDS011;68167;59.120;37.898;2023-05-07T13:56:34;3.77;;;1.60;;
71696;SDS011;68167;59.120;37.898;2023-05-07T13:59:01;0.93;;;0.70;;
71696;SDS011;68167;59.120;37.898;2023-05-07T14:01:28;2.07;;;0.90;;
71696;SDS011;68167;59.120;37.898;2023-05-07T14:03:55;3.07;;;1.03;;
71696;SDS011;68167;59.120;37.898;2023-05-07T14:06:23;1.73;;;0.63;;
71696;SDS011;68167;59.120;37.898;2023-05-07T14:08:50;4.43;;;0.50;;
71696;SDS011;68167;59.120;37.898;2023-05-07T14:11:17;1.93;;;0.60;;
71696;SDS011;68167;59.120;37.898;2023-05-07T14:13:44;2.10;;;0.70;;
71696;SDS011;68167;59.120;37.898;2023-05-07T14:16:10;2.37;;;0.70;;
71696;SDS011;68167;59.120;37.898;2023-05-07T14:18:37;0.63;;;0.60;;
71696;SDS011;68167;59.120;37.898;2023-05-07T14:21:04;2.30;;;0.80;;
71696;SDS011;68167;59.120;37.898;2023-05-07T14:23:35;3.80;;;0.70;;
71696;SDS011;68167;59.120;37.898;2023-05-07T14:26:02;1.10;;;0.57;;
71696;SDS011;68167;59.120;37.898;2023-05-07T14:28:30;8.50;;;6.37;;
71696;SDS011;68167;59.120;37.898;2023-05-07T14:30:57;1.57;;;1.10;;
71696;SDS011;68167;59.120;37.898;2023-05-07T14:33:24;4.17;;;1.80;;
71696;SDS011;68167;59.120;37.898;2023-05-07T14:35:50;2.77;;;1.40;;
71696;SDS011;68167;59.120;37.898;2023-05-07T14:38:17;3.77;;;1.70;;
71696;SDS011;68167;59.120;37.898;2023-05-07T14:40:44;3.20;;;1.07;;
71696;SDS011;68167;59.120;37.898;2023-05-07T14:43:10;3.63;;;1.00;;